Time;durP1;ratioP1;P1;durP2;ratioP2;P2;SDS_P1;SDS_P2;PMS_P1;PMS_P2;Temp;Humidity;BMP_temperature;BMP_pressure;BME280_temperature;BME280_humidity;BME280_pressure;Samples;Min_cycle;Max_cycle;Signal;HPM_P1;HPM_P2
2022/03/23 00:00:28;;;;;;;22.50;10.43;;;;;;;0.57;100.00;101735.75;1779841;81;21488;-67
2022/03/23 00:02:56;;;;;;;21.77;9.97;;;;;;;0.60;100.00;101730.27;1779449;81;21517;-67
2022/03/23 00:05:25;;;;;;;22.37;10.20;;;;;;;0.63;100.00;101727.97;1779633;81;21006;-67
2022/03/23 00:07:53;;;;;;;24.50;10.20;;;;;;;0.63;100.00;101733.29;1775893;79;21054;-67
2022/03/23 00:10:20;;;;;;;22.23;10.33;;;;;;;0.61;100.00;101725.84;1771101;81;21513;-67
2022/03/23 00:12:48;;;;;;;25.90;10.87;;;;;;;0.56;100.00;101731.34;1770801;81;21133;-67
2022/03/23 00:15:15;;;;;;;25.63;10.17;;;;;;;0.50;100.00;101730.30;1770803;81;21043;-67
2022/03/23 00:17:43;;;;;;;23.07;10.70;;;;;;;0.43;100.00;101730.16;1771008;81;21066;-68
2022/03/23 00:20:11;;;;;;;21.83;10.00;;;;;;;0.35;100.00;101732.67;1770840;81;21148;-67
2022/03/23 00:22:40;;;;;;;20.93;9.60;;;;;;;0.30;100.00;101729.77;1771004;81;21043;-67
2022/03/23 00:25:09;;;;;;;24.53;10.43;;;;;;;0.26;100.00;101729.03;1736870;83;21521;-67
2022/03/23 00:27:36;;;;;;;25.03;10.83;;;;;;;0.24;100.00;101724.72;1770907;81;21082;-66
2022/03/23 00:30:04;;;;;;;26.23;10.87;;;;;;;0.23;100.00;101721.20;1768292;79;20990;-67
2022/03/23 00:32:33;;;;;;;22.93;10.17;;;;;;;0.26;100.00;101725.52;1762694;81;21038;-68
2022/03/23 00:35:03;;;;;;;22.83;10.37;;;;;;;0.28;100.00;101719.66;1762680;81;21065;-68
2022/03/23 00:37:30;;;;;;;24.97;10.57;;;;;;;0.29;100.00;101728.06;1762445;81;21021;-67
2022/03/23 00:39:58;;;;;;;25.83;10.37;;;;;;;0.29;100.00;101718.75;1762230;81;21029;-66
2022/03/23 00:42:25;;;;;;;20.30;9.40;;;;;;;0.29;100.00;101718.27;1761896;81;21073;-67
2022/03/23 00:44:52;;;;;;;25.73;10.67;;;;;;;0.29;100.00;101715.61;1762128;81;21092;-68
2022/03/23 00:47:20;;;;;;;22.50;9.50;;;;;;;0.27;100.00;101711.30;1761924;81;21084;-67
2022/03/23 00:49:46;;;;;;;24.07;10.93;;;;;;;0.24;100.00;101712.75;1762103;81;21064;-68
2022/03/23 00:52:13;;;;;;;22.67;10.70;;;;;;;0.16;100.00;101708.61;1761740;81;21002;-67
2022/03/23 00:54:40;;;;;;;21.80;9.57;;;;;;;0.12;100.00;101711.45;1762129;81;20994;-67
2022/03/23 00:57:07;;;;;;;23.50;10.30;;;;;;;0.05;100.00;101700.66;1761826;81;21042;-67
2022/03/23 00:59:34;;;;;;;22.70;10.20;;;;;;;-0.03;100.00;101694.34;1761948;81;21492;-67
2022/03/23 01:02:02;;;;;;;24.63;10.53;;;;;;;-0.11;100.00;101696.43;1761890;81;20998;-67
2022/03/23 01:04:30;;;;;;;26.17;11.80;;;;;;;-0.17;100.00;101692.23;1762067;81;21034;-67
2022/03/23 01:06:58;;;;;;;22.03;10.40;;;;;;;-0.22;100.00;101688.89;1761821;81;21073;-68
2022/03/23 01:09:27;;;;;;;22.43;10.03;;;;;;;-0.28;100.00;101683.83;1761456;81;21049;-67
2022/03/23 01:11:55;;;;;;;22.27;10.30;;;;;;;-0.35;100.00;101683.64;1761677;81;21014;-67
2022/03/23 01:14:24;;;;;;;25.27;10.97;;;;;;;-0.40;100.00;101691.34;1761820;81;20982;-67
2022/03/23 01:16:51;;;;;;;23.60;10.17;;;;;;;-0.44;100.00;101687.08;1761757;81;21030;-67
2022/03/23 01:19:25;;;;;;;22.97;9.70;;;;;;;-0.44;100.00;101691.54;1761612;81;21006;-67
2022/03/23 01:21:53;;;;;;;21.23;9.07;;;;;;;-0.42;100.00;101677.72;1761669;81;21066;-67
2022/03/23 01:24:20;;;;;;;39.53;13.00;;;;;;;-0.34;100.00;101683.58;1761684;81;21064;-66
2022/03/23 01:26:47;;;;;;;27.83;10.80;;;;;;;-0.25;100.00;101681.91;1761537;81;21544;-68
2022/03/23 01:29:15;;;;;;;23.77;10.10;;;;;;;-0.16;100.00;101678.02;1761859;81;21080;-68
2022/03/23 01:31:49;;;;;;;23.33;9.83;;;;;;;-0.10;100.00;101681.75;1737083;83;21504;-67
2022/03/23 01:34:17;;;;;;;21.13;9.47;;;;;;;-0.04;100.00;101675.30;1714463;84;21075;-67
2022/03/23 01:36:44;;;;;;;21.93;9.10;;;;;;;-0.02;100.00;101673.44;1714165;84;21478;-67
2022/03/23 01:39:12;;;;;;;23.50;10.07;;;;;;;-0.01;100.00;101677.84;1737310;83;21024;-66
2022/03/23 01:41:40;;;;;;;22.97;9.87;;;;;;;0.01;100.00;101684.44;1757653;81;21536;-67
2022/03/23 01:44:22;;;;;;;19.57;9.63;;;;;;;0.03;100.00;101679.91;1764043;81;21096;-66
2022/03/23 01:47:07;;;;;;;23.37;9.27;;;;;;;0.04;100.00;101674.54;1764328;81;21037;-67
2022/03/23 01:49:37;;;;;;;20.43;8.97;;;;;;;0.03;100.00;101678.11;1764129;81;21713;-67
2022/03/23 01:52:07;;;;;;;24.50;10.23;;;;;;;-0.03;100.00;101677.05;1764356;81;21551;-67
2022/03/23 01:54:35;;;;;;;22.23;9.57;;;;;;;-0.10;100.00;101680.41;1764084;81;20998;-67
2022/03/23 01:57:03;;;;;;;22.13;9.60;;;;;;;-0.17;100.00;101676.75;1764155;81;21029;-67
2022/03/23 01:59:30;;;;;;;22.80;10.07;;;;;;;-0.25;100.00;101677.03;1764117;81;21045;-67
2022/03/23 02:01:59;;;;;;;22.20;9.80;;;;;;;-0.31;100.00;101674.16;1763821;81;21006;-67
2022/03/23 02:04:28;;;;;;;21.90;9.33;;;;;;;-0.36;100.00;101673.48;1764123;81;21041;-67
2022/03/23 02:06:55;;;;;;;22.37;10.10;;;;;;;-0.38;100.00;101675.34;1764088;81;21077;-67
2022/03/23 02:09:25;;;;;;;21.03;9.33;;;;;;;-0.39;100.00;101673.16;1766220;81;21038;-67
2022/03/23 02:11:53;;;;;;;21.00;9.57;;;;;;;-0.39;100.00;101668.28;1735440;81;20986;-68
2022/03/23 02:14:20;;;;;;;22.37;9.73;;;;;;;-0.43;100.00;101672.84;1767053;81;21476;-66
2022/03/23 02:16:52;;;;;;;21.80;9.97;;;;;;;-0.46;100.00;101676.98;1766880;81;21076;-67
2022/03/23 02:19:21;;;;;;;21.80;10.17;;;;;;;-0.50;100.00;101681.98;1766625;81;21046;-68
2022/03/23 02:21:50;;;;;;;21.40;9.43;;;;;;;-0.55;100.00;101679.97;1766850;81;21021;-67
2022/03/23 02:24:17;;;;;;;20.10;9.63;;;;;;;-0.60;100.00;101678.84;1767089;81;21076;-66
2022/03/23 02:26:44;;;;;;;21.17;9.90;;;;;;;-0.62;100.00;101672.72;1735416;81;20998;-67
2022/03/23 02:29:11;;;;;;;22.30;9.53;;;;;;;-0.62;100.00;101675.38;1766908;81;21495;-67
2022/03/23 02:31:38;;;;;;;21.77;9.77;;;;;;;-0.63;100.00;101670.98;1761377;81;21026;-67
2022/03/23 02:34:05;;;;;;;23.83;10.67;;;;;;;-0.65;100.00;101679.47;1761015;81;20979;-67
2022/03/23 02:36:32;;;;;;;22.70;9.97;;;;;;;-0.70;100.00;101669.48;1760842;81;21085;-67
2022/03/23 02:38:59;;;;;;;21.63;9.57;;;;;;;-0.73;100.00;101670.92;1760628;81;21100;-67
2022/03/23 02:41:26;;;;;;;28.77;9.87;;;;;;;-0.74;100.00;101669.65;1767128;81;21022;-68
2022/03/23 02:43:53;;;;;;;25.03;10.20;;;;;;;-0.74;100.00;101670.53;1736482;82;21039;-66
2022/03/23 02:46:20;;;;;;;27.97;10.43;;;;;;;-0.72;100.00;101661.19;1770995;81;21541;-67
2022/03/23 02:48:48;;;;;;;21.73;10.40;;;;;;;-0.74;100.00;101669.20;1770512;81;21011;-67
2022/03/23 02:51:15;;;;;;;22.17;10.37;;;;;;;-0.75;100.00;101661.30;1736791;82;21525;-68
2022/03/23 03:02:57;;;;;;;21.63;10.23;;;;;;;-0.93;100.00;101663.72;1650745;87;21105;-68
2022/03/23 03:05:24;;;;;;;23.37;10.80;;;;;;;-1.01;100.00;101654.72;1651257;87;21006;-67
2022/03/23 03:10:37;;;;;;;23.57;10.50;;;;;;;-1.07;100.00;101656.73;1649548;87;21069;-68
2022/03/23 03:13:05;;;;;;;21.80;10.03;;;;;;;-1.12;100.00;101653.38;1649880;87;21030;-67
2022/03/23 03:15:34;;;;;;;24.40;11.10;;;;;;;-1.16;100.00;101652.62;1648943;87;21499;-67
2022/03/23 03:18:02;;;;;;;21.47;10.57;;;;;;;-1.20;100.00;101648.36;1649393;87;21527;-67
2022/03/23 03:20:31;;;;;;;23.87;10.83;;;;;;;-1.23;100.00;101649.79;1649281;87;21626;-68
2022/03/23 03:22:59;;;;;;;23.67;11.33;;;;;;;-1.26;100.00;101644.11;1649630;87;21034;-67
2022/03/23 03:25:27;;;;;;;25.83;12.53;;;;;;;-1.29;100.00;101644.25;1649282;87;21546;-68
2022/03/23 03:27:54;;;;;;;25.00;11.73;;;;;;;-1.33;100.00;101649.24;1649687;87;20977;-67
2022/03/23 03:30:21;;;;;;;26.37;12.50;;;;;;;-1.36;100.00;101642.74;1635547;87;21089;-67
2022/03/23 03:32:48;;;;;;;29.33;14.73;;;;;;;-1.37;100.00;101647.63;1587301;90;21049;-68
2022/03/23 03:35:15;;;;;;;32.03;16.03;;;;;;;-1.40;100.00;101656.58;1631720;87;21061;-67
2022/03/23 03:37:42;;;;;;;28.03;14.17;;;;;;;-1.44;100.00;101652.28;1643852;87;21076;-67
2022/03/23 03:40:12;;;;;;;28.13;14.40;;;;;;;-1.46;100.00;101655.45;1652600;84;21138;-66
2022/03/23 03:42:39;;;;;;;32.50;15.27;;;;;;;-1.50;100.00;101651.19;1707075;84;21035;-66
2022/03/23 03:45:08;;;;;;;28.77;13.57;;;;;;;-1.55;100.00;101652.66;1706961;84;21116;-67
2022/03/23 03:47:35;;;;;;;26.50;12.77;;;;;;;-1.59;100.00;101651.52;1706872;84;21058;-68
2022/03/23 03:50:03;;;;;;;24.07;11.53;;;;;;;-1.63;100.00;101653.84;1706890;84;21097;-67
2022/03/23 03:52:30;;;;;;;25.53;11.63;;;;;;;-1.68;100.00;101647.83;1706726;84;21011;-67
2022/03/23 03:54:57;;;;;;;24.10;11.73;;;;;;;-1.73;100.00;101649.34;1707094;84;21481;-67
2022/03/23 03:57:26;;;;;;;21.83;10.33;;;;;;;-1.76;100.00;101646.31;1769224;81;21026;-66
2022/03/23 03:59:52;;;;;;;24.37;11.30;;;;;;;-1.76;100.00;101641.48;1771558;81;20991;-67
2022/03/23 04:02:19;;;;;;;25.97;11.67;;;;;;;-1.76;100.00;101644.13;1771629;81;21032;-67
2022/03/23 04:04:47;;;;;;;24.93;11.60;;;;;;;-1.77;100.00;101642.38;1771627;81;21046;-66
2022/03/23 04:07:13;;;;;;;23.87;10.43;;;;;;;-1.76;100.00;101641.48;1771372;81;21771;-67
2022/03/23 04:09:42;;;;;;;25.87;11.43;;;;;;;-1.75;100.00;101637.92;1790206;78;21029;-66
2022/03/23 04:12:09;;;;;;;25.47;11.07;;;;;;;-1.74;100.00;101647.13;1798260;80;21475;-66
2022/03/23 04:14:38;;;;;;;30.80;11.37;;;;;;;-1.74;100.00;101641.81;1798546;78;21030;-67
2022/03/23 04:17:05;;;;;;;33.37;12.43;;;;;;;-1.74;100.00;101651.09;1798138;80;21033;-67
2022/03/23 04:19:33;;;;;;;28.27;11.80;;;;;;;-1.73;100.00;101640.05;1798309;80;21014;-67
2022/03/23 04:22:00;;;;;;;31.90;12.97;;;;;;;-1.69;100.00;101632.86;1798014;80;21053;-66
2022/03/23 04:24:28;;;;;;;33.20;12.47;;;;;;;-1.66;100.00;101636.27;1798395;80;21038;-66
2022/03/23 04:26:55;;;;;;;33.87;12.80;;;;;;;-1.63;100.00;101637.94;1798398;80;21038;-66
2022/03/23 04:29:24;;;;;;;32.40;12.33;;;;;;;-1.58;100.00;101636.84;1798194;80;21017;-66
2022/03/23 04:31:50;;;;;;;26.17;11.93;;;;;;;-1.55;100.00;101635.42;1771710;81;21049;-66
2022/03/23 04:34:17;;;;;;;30.57;12.03;;;;;;;-1.49;100.00;101631.67;1771790;81;21025;-66
2022/03/23 04:36:43;;;;;;;28.03;12.23;;;;;;;-1.42;100.00;101638.49;1771465;81;21013;-67
2022/03/23 04:39:11;;;;;;;27.37;11.57;;;;;;;-1.37;100.00;101635.69;1771755;81;21065;-66
2022/03/23 04:41:38;;;;;;;25.77;11.63;;;;;;;-1.31;100.00;101638.14;1791382;80;21076;-65
2022/03/23 04:44:06;;;;;;;34.80;12.63;;;;;;;-1.25;100.00;101635.24;1798685;80;21010;-75
2022/03/23 04:46:33;;;;;;;48.50;14.80;;;;;;;-1.17;100.00;101630.97;1799046;80;21507;-74
2022/03/23 04:48:59;;;;;;;47.73;15.60;;;;;;;-1.09;100.00;101636.87;1799390;80;21013;-74
2022/03/23 04:51:26;;;;;;;32.30;12.77;;;;;;;-0.98;100.00;101629.83;1799163;80;21076;-75
2022/03/23 04:53:53;;;;;;;36.97;15.30;;;;;;;-0.86;100.00;101631.16;1799266;80;21038;-74
2022/03/23 04:56:19;;;;;;;44.97;18.83;;;;;;;-0.74;100.00;101640.42;1799289;80;21487;-74
2022/03/23 04:58:46;;;;;;;41.10;17.63;;;;;;;-0.62;100.00;101636.86;1799298;80;21336;-75
2022/03/23 05:01:13;;;;;;;36.20;15.40;;;;;;;-0.49;100.00;101641.69;1798873;80;20994;-73
2022/03/23 05:03:40;;;;;;;41.00;18.17;;;;;;;-0.38;100.00;101642.11;1799223;80;21002;-75
2022/03/23 05:06:07;;;;;;;41.33;16.40;;;;;;;-0.24;100.00;101634.91;1799226;80;21080;-74
2022/03/23 05:08:36;;;;;;;30.50;12.50;;;;;;;-0.09;100.00;101635.62;1798861;80;20982;-75
2022/03/23 05:11:03;;;;;;;27.33;12.70;;;;;;;0.10;100.00;101634.84;1798334;80;20993;-75
2022/03/23 05:13:30;;;;;;;26.40;11.90;;;;;;;0.32;100.00;101641.42;1798334;80;21037;-75
2022/03/23 05:15:57;;;;;;;30.93;13.90;;;;;;;0.54;100.00;101643.56;1798299;80;21037;-75
2022/03/23 05:18:24;;;;;;;31.93;15.53;;;;;;;0.74;100.00;101637.37;1798320;80;21006;-76
2022/03/23 05:20:51;;;;;;;31.27;15.40;;;;;;;0.91;100.00;101640.59;1798502;80;21029;-76
2022/03/23 05:23:19;;;;;;;31.23;15.53;;;;;;;1.08;100.00;101638.50;1798129;80;21013;-76
2022/03/23 05:25:46;;;;;;;31.67;17.10;;;;;;;1.25;100.00;101643.51;1798565;80;21508;-75
2022/03/23 05:28:13;;;;;;;36.60;18.30;;;;;;;1.40;100.00;101638.80;1798363;80;21511;-75
2022/03/23 05:30:40;;;;;;;31.27;15.90;;;;;;;1.55;100.00;101633.67;1798175;80;21045;-75
2022/03/23 05:33:07;;;;;;;36.47;15.10;;;;;;;1.68;99.85;101637.00;1797880;80;20986;-75
2022/03/23 05:35:34;;;;;;;37.77;15.17;;;;;;;1.82;98.63;101633.63;1797988;80;21021;-75
2022/03/23 05:38:01;;;;;;;25.80;13.23;;;;;;;1.98;97.24;101630.21;1797769;80;21029;-75
2022/03/23 05:40:28;;;;;;;32.73;13.67;;;;;;;2.14;95.77;101628.97;1788616;80;21445;-74
2022/03/23 05:42:55;;;;;;;33.80;14.73;;;;;;;2.26;94.64;101626.53;1762998;81;21043;-75
2022/03/23 05:45:22;;;;;;;30.03;13.50;;;;;;;2.41;93.53;101622.70;1763405;81;21091;-74
2022/03/23 05:47:52;;;;;;;33.07;13.47;;;;;;;2.55;92.75;101625.52;1742269;82;21027;-75
2022/03/23 05:50:18;;;;;;;28.60;13.80;;;;;;;2.74;91.79;101617.85;1742273;82;20980;-76
2022/03/23 05:52:46;;;;;;;30.87;14.70;;;;;;;2.94;90.70;101621.66;1742437;82;21076;-79
2022/03/23 05:55:12;;;;;;;26.60;14.47;;;;;;;3.15;89.94;101613.40;1743068;82;21507;-78
2022/03/23 05:57:41;;;;;;;26.47;13.63;;;;;;;3.39;89.26;101619.20;1742396;82;21004;-77
2022/03/23 06:00:09;;;;;;;27.43;13.67;;;;;;;3.63;88.67;101616.97;1742294;82;21084;-75
2022/03/23 06:02:41;;;;;;;28.73;13.97;;;;;;;3.86;86.78;101614.75;1742556;82;21076;-75
2022/03/23 06:05:09;;;;;;;32.07;15.30;;;;;;;4.04;84.54;101616.37;1742557;82;21036;-77
2022/03/23 06:07:36;;;;;;;31.43;16.17;;;;;;;4.21;82.72;101621.20;1742587;82;21090;-77
2022/03/23 06:10:07;;;;;;;31.13;14.67;;;;;;;4.43;81.87;101614.95;1754151;81;21074;-76
2022/03/23 06:12:34;;;;;;;31.83;13.60;;;;;;;4.63;80.32;101604.83;1772030;81;21007;-75
2022/03/23 06:15:11;;;;;;;;;;;;;;;;;;;;;
2022/03/23 06:17:31;;;;;;;28.53;14.00;;;;;;;4.97;76.81;101611.62;1676545;84;21643;-75
2022/03/23 06:20:00;;;;;;;26.53;13.50;;;;;;;5.11;75.08;101610.27;1675588;86;21068;-72
2022/03/23 06:22:28;;;;;;;32.70;14.43;;;;;;;5.21;73.25;101613.73;1675326;86;21134;-74
2022/03/23 06:24:55;;;;;;;28.50;13.67;;;;;;;5.29;71.79;101612.28;1673458;86;21059;-71
2022/03/23 06:27:21;;;;;;;27.43;12.80;;;;;;;5.37;71.35;101611.78;1645281;87;21063;-76
2022/03/23 06:29:49;;;;;;;29.07;13.80;;;;;;;5.50;71.52;101610.50;1647979;86;21108;-75
2022/03/23 06:32:17;;;;;;;28.67;14.67;;;;;;;5.70;72.27;101608.72;1652542;87;21087;-73
2022/03/23 06:34:44;;;;;;;35.33;12.70;;;;;;;5.82;70.65;101604.84;1648260;87;21076;-73
2022/03/23 06:37:11;;;;;;;101.27;19.40;;;;;;;5.95;70.49;101599.04;1644543;87;21164;-72
2022/03/23 06:39:38;;;;;;;35.50;14.87;;;;;;;6.08;68.96;101607.16;1626470;87;21565;-76
2022/03/23 06:42:07;;;;;;;30.57;13.40;;;;;;;6.25;68.74;101596.59;1683346;84;21543;-73
2022/03/23 06:44:33;;;;;;;26.83;12.40;;;;;;;6.46;68.48;101592.91;1677262;85;21062;-72
2022/03/23 06:47:01;;;;;;;27.57;9.67;;;;;;;6.55;66.50;101588.73;1708737;84;21025;-74
2022/03/23 06:49:28;;;;;;;17.07;7.97;;;;;;;6.63;65.74;101591.25;1732028;83;21503;-75
2022/03/23 06:51:55;;;;;;;17.10;7.80;;;;;;;6.75;64.77;101587.34;1729851;82;21025;-76
2022/03/23 06:54:22;;;;;;;21.10;9.50;;;;;;;6.81;63.84;101589.09;1736990;83;21068;-74
2022/03/23 06:56:51;;;;;;;16.63;8.20;;;;;;;6.84;61.95;101590.72;1736287;82;21041;-75
2022/03/23 06:59:19;;;;;;;22.37;9.00;;;;;;;6.84;61.81;101586.69;1770281;81;21352;-72
2022/03/23 07:01:45;;;;;;;30.30;9.63;;;;;;;7.01;62.32;101585.47;1771033;81;21013;-73
2022/03/23 07:04:12;;;;;;;18.33;9.10;;;;;;;7.20;61.65;101587.20;1770377;81;21105;-71
2022/03/23 07:06:40;;;;;;;18.53;8.30;;;;;;;7.36;60.11;101581.56;1770907;81;21002;-71
2022/03/23 07:11:56;;;;;;;21.30;10.20;;;;;;;7.50;57.28;101577.01;1761811;81;21571;-73
2022/03/23 07:14:23;;;;;;;20.97;9.93;;;;;;;7.53;56.14;101576.79;1761830;81;21017;-75
2022/03/23 07:16:50;;;;;;;21.70;10.17;;;;;;;7.64;56.81;101574.14;1741085;82;20997;-74
2022/03/23 07:19:17;;;;;;;20.93;10.27;;;;;;;7.87;56.41;101574.26;1741303;82;21012;-74
2022/03/23 07:21:45;;;;;;;22.07;10.90;;;;;;;8.08;56.69;101565.03;1740509;82;21708;-75
2022/03/23 07:24:13;;;;;;;23.47;12.03;;;;;;;8.36;55.45;101563.77;1741444;82;21028;-72
2022/03/23 07:26:41;;;;;;;19.50;10.07;;;;;;;8.43;53.39;101563.69;1741662;82;21507;-72
2022/03/23 07:29:09;;;;;;;20.03;9.73;;;;;;;8.58;53.98;101560.77;1740830;82;21059;-75
2022/03/23 07:31:36;;;;;;;21.27;9.70;;;;;;;8.93;54.57;101558.80;1738981;80;21043;-74
2022/03/23 07:34:03;;;;;;;39.60;17.43;;;;;;;9.28;53.33;101559.64;1739002;82;21813;-74
2022/03/23 07:36:30;;;;;;;31.10;13.23;;;;;;;9.40;52.38;101555.05;1738387;81;21524;-73
2022/03/23 07:38:58;;;;;;;30.60;13.65;;;;;;;9.61;52.49;101553.27;1739253;81;21010;-76
2022/03/23 07:41:26;;;;;;;45.90;17.45;;;;;;;9.95;53.02;101551.81;1706641;84;21642;-75
2022/03/23 07:43:54;;;;;;;49.93;21.87;;;;;;;10.34;52.27;101549.42;1738510;82;21078;-76
2022/03/23 07:46:20;;;;;;;32.15;14.75;;;;;;;10.59;49.95;101544.58;1739942;82;21081;-76
2022/03/23 07:48:47;;;;;;;35.00;17.40;;;;;;;10.77;48.48;101547.00;1740456;82;21078;-76
2022/03/23 07:51:16;;;;;;;21.80;11.33;;;;;;;10.75;46.60;101546.29;1741587;82;20998;-78
2022/03/23 07:53:49;;;;;;;26.15;10.58;;;;;;;10.77;46.74;101538.04;1741553;82;20995;-79
2022/03/23 07:56:24;;;;;;;23.50;10.53;;;;;;;10.92;46.89;101541.22;1739131;82;21109;-79
2022/03/23 07:58:58;;;;;;;22.25;10.63;;;;;;;11.16;46.98;101536.31;1742115;82;21066;-79
2022/03/23 08:01:25;;;;;;;20.70;9.13;;;;;;;11.38;45.12;101531.66;1741357;81;21489;-80
2022/03/23 08:03:54;;;;;;;21.90;10.85;;;;;;;11.40;44.03;101531.02;1741460;82;21118;-79
2022/03/23 08:06:21;;;;;;;21.25;10.65;;;;;;;11.45;43.39;101533.31;1742321;82;21030;-80
2022/03/23 08:08:50;;;;;;;15.65;8.38;;;;;;;11.35;42.54;101535.52;1742026;81;21118;-80
2022/03/23 08:11:18;;;;;;;25.80;10.95;;;;;;;11.48;43.14;101525.76;1727757;81;21078;-80
2022/03/23 08:13:47;;;;;;;38.55;16.17;;;;;;;11.70;41.95;101523.27;1725370;83;21110;-78
2022/03/23 08:16:14;;;;;;;25.20;10.30;;;;;;;11.82;41.86;101511.80;1701644;83;21182;-81
2022/03/23 08:18:44;;;;;;;16.90;8.23;;;;;;;12.13;42.68;101513.88;1725617;83;21043;-78
2022/03/23 08:21:10;;;;;;;19.50;7.87;;;;;;;12.46;41.65;101506.72;1725977;83;20980;-77
2022/03/23 08:23:40;;;;;;;25.00;10.05;;;;;;;12.61;40.68;101498.47;1725768;83;21027;-79
2022/03/23 08:29:02;;;;;;;18.00;8.88;;;;;;;12.97;39.55;101493.66;1722987;81;20985;-69
2022/03/23 08:31:29;;;;;;;19.52;8.70;;;;;;;13.19;38.26;101486.94;1720935;83;21047;-70
2022/03/23 08:33:57;;;;;;;18.80;8.15;;;;;;;13.28;37.34;101482.81;1720794;83;21026;-69
2022/03/23 08:36:24;;;;;;;21.73;10.15;;;;;;;13.40;37.62;101484.84;1725503;82;21102;-71
2022/03/23 08:38:53;;;;;;;15.95;8.45;;;;;;;13.43;36.48;101482.31;1754682;81;21542;-71
2022/03/23 08:41:22;;;;;;;20.32;8.78;;;;;;;13.32;36.49;101479.83;1765169;80;21026;-72
2022/03/23 08:43:49;;;;;;;19.15;8.15;;;;;;;13.27;36.26;101472.94;1734118;81;21030;-70
2022/03/23 08:46:16;;;;;;;21.25;8.85;;;;;;;13.28;36.25;101468.39;1732569;81;21369;-72
2022/03/23 08:48:44;;;;;;;18.40;8.50;;;;;;;13.27;35.88;101470.23;1764475;81;21023;-70
2022/03/23 08:51:11;;;;;;;20.27;9.40;;;;;;;13.33;35.56;101460.63;1708193;81;21481;-71
2022/03/23 08:53:42;;;;;;;23.62;10.30;;;;;;;13.40;35.10;101454.96;1765029;81;21028;-70
2022/03/23 08:56:10;;;;;;;19.37;9.38;;;;;;;13.16;34.07;101460.11;1765095;81;21091;-69
2022/03/23 08:58:39;;;;;;;19.70;9.40;;;;;;;13.05;34.98;101452.52;1764869;81;21071;-70
2022/03/23 09:01:06;;;;;;;19.67;9.20;;;;;;;13.10;34.53;101450.69;1732988;81;21028;-72
2022/03/23 09:03:35;;;;;;;17.77;8.85;;;;;;;13.09;34.07;101451.20;1766590;80;21567;-68
2022/03/23 09:06:02;;;;;;;26.07;9.60;;;;;;;13.11;33.27;101445.11;1767461;81;21033;-69
2022/03/23 09:08:31;;;;;;;20.17;9.53;;;;;;;13.01;33.51;101440.75;1677384;84;21138;-71
2022/03/23 09:10:59;;;;;;;31.40;14.33;;;;;;;13.24;34.37;101435.73;1737193;83;21133;-69
2022/03/23 09:13:27;;;;;;;23.60;9.60;;;;;;;13.44;33.82;101431.89;1703451;84;21056;-69
2022/03/23 09:15:56;;;;;;;28.75;10.10;;;;;;;13.64;33.77;101423.57;1734382;83;21053;-70
2022/03/23 09:18:26;;;;;;;17.67;8.93;;;;;;;13.81;33.82;101427.25;1737108;83;21083;-70
2022/03/23 09:20:53;;;;;;;22.70;8.95;;;;;;;13.79;32.27;101419.77;1704189;84;21097;-70
2022/03/23 09:23:21;;;;;;;16.37;7.47;;;;;;;13.78;32.62;101422.16;1755877;81;21076;-70
2022/03/23 09:25:49;;;;;;;23.10;10.23;;;;;;;13.86;32.22;101409.48;1793971;80;21101;-70
2022/03/23 09:28:18;;;;;;;18.10;8.20;;;;;;;13.81;31.83;101412.30;1791119;80;21627;-71
2022/03/23 09:30:45;;;;;;;18.60;8.98;;;;;;;13.72;31.83;101407.82;1789028;80;21042;-70
2022/03/23 09:33:12;;;;;;;20.43;8.33;;;;;;;13.72;31.99;101404.59;1789336;80;21074;-70
2022/03/23 09:35:40;;;;;;;22.37;8.45;;;;;;;13.62;31.31;101403.86;1789348;80;21031;-70
2022/03/23 09:38:08;;;;;;;14.53;7.15;;;;;;;13.63;31.58;101401.47;1789045;80;20999;-70
2022/03/23 09:40:35;;;;;;;18.65;7.92;;;;;;;13.68;31.61;101396.41;1764593;80;21067;-68
2022/03/23 09:43:08;;;;;;;32.67;14.45;;;;;;;13.77;31.40;101395.97;1788577;80;21059;-68
2022/03/23 09:45:48;;;;;;;21.57;9.93;;;;;;;13.86;31.72;101392.29;1787979;80;21087;-68
2022/03/23 09:48:20;;;;;;;26.30;8.50;;;;;;;14.21;32.40;101394.03;1789130;80;21031;-69
2022/03/23 09:50:52;;;;;;;20.82;7.95;;;;;;;14.51;31.77;101388.23;1716945;83;21062;-71
2022/03/23 09:53:21;;;;;;;23.50;8.60;;;;;;;14.57;31.51;101387.07;1719257;83;20999;-69
2022/03/23 09:55:52;;;;;;;19.57;8.05;;;;;;;14.74;32.04;101389.87;1717607;83;21031;-70
2022/03/23 09:58:19;;;;;;;17.55;8.10;;;;;;;14.96;31.99;101373.41;1687517;83;21636;-69
2022/03/23 10:00:46;;;;;;;20.50;8.55;;;;;;;15.15;31.30;101372.25;1715215;83;21027;-69
2022/03/23 10:03:42;;;;;;;20.00;8.28;;;;;;;15.14;31.71;101371.41;1717295;82;21042;-71
2022/03/23 10:06:47;;;;;;;19.50;7.47;;;;;;;15.35;31.48;101361.86;1737290;82;21030;-70
2022/03/23 10:09:58;;;;;;;19.70;8.60;;;;;;;15.54;31.23;101350.61;1676060;84;21059;-70
2022/03/23 10:13:14;;;;;;;19.17;9.33;;;;;;;15.70;31.17;101340.72;1673806;84;21147;-70
2022/03/23 10:16:37;;;;;;;18.27;8.20;;;;;;;16.04;30.69;101347.33;1698592;84;21075;-71
2022/03/23 10:19:05;;;;;;;17.77;8.57;;;;;;;16.30;29.92;101331.19;1699118;84;21114;-71
2022/03/23 10:21:36;;;;;;;34.80;9.68;;;;;;;16.30;29.70;101335.28;1738685;82;21782;-71
2022/03/23 10:24:08;;;;;;;19.92;8.98;;;;;;;16.29;29.26;101328.98;1746552;82;21054;-70
2022/03/23 10:26:36;;;;;;;18.50;8.93;;;;;;;16.25;30.08;101327.61;1745962;82;21610;-70
2022/03/23 10:29:04;;;;;;;25.32;9.63;;;;;;;16.24;28.71;101323.20;1680497;84;21810;-70
2022/03/23 10:31:32;;;;;;;17.57;8.13;;;;;;;16.17;29.32;101318.64;1681670;84;21039;-70
2022/03/23 10:34:07;;;;;;;15.83;7.90;;;;;;;16.22;29.03;101306.66;1711197;84;21402;-70
2022/03/23 10:36:40;;;;;;;26.42;9.75;;;;;;;16.24;28.97;101310.08;1598736;88;21112;-71
2022/03/23 10:39:10;;;;;;;21.50;8.50;;;;;;;16.25;29.51;101307.67;1597332;88;21059;-70
2022/03/23 10:41:37;;;;;;;17.67;7.87;;;;;;;16.38;29.06;101303.88;1622088;86;21205;-70
2022/03/23 10:44:16;;;;;;;20.82;9.33;;;;;;;16.41;29.12;101297.19;1634005;86;21069;-71
2022/03/23 10:46:43;;;;;;;16.77;7.40;;;;;;;16.53;28.99;101293.55;1653278;86;21092;-70
2022/03/23 10:49:11;;;;;;;16.80;7.45;;;;;;;16.54;28.54;101287.91;1643281;87;21074;-70
2022/03/23 10:51:38;;;;;;;18.48;8.25;;;;;;;16.53;27.97;101277.17;1639852;87;21611;-70
2022/03/23 10:54:20;;;;;;;21.27;8.45;;;;;;;16.36;27.67;101275.03;1641783;87;21093;-70
2022/03/23 10:56:48;;;;;;;17.15;8.08;;;;;;;16.27;27.50;101266.91;1642596;87;21074;-71
2022/03/23 10:59:22;;;;;;;15.48;7.58;;;;;;;16.28;27.54;101266.39;1643091;87;21102;-70
2022/03/23 11:02:02;;;;;;;18.85;8.43;;;;;;;16.36;27.79;101264.12;1643379;87;21109;-71
2022/03/23 11:04:31;;;;;;;24.67;8.98;;;;;;;16.35;26.89;101257.81;1639675;87;21134;-72
2022/03/23 11:07:01;;;;;;;26.62;8.85;;;;;;;16.27;27.08;101254.63;1611902;89;21073;-71
2022/03/23 11:18:11;;;;;;;16.10;7.85;;;;;;;15.90;25.87;101244.38;1620516;88;21101;-70
2022/03/23 11:20:47;;;;;;;20.72;8.30;;;;;;;15.54;26.61;101236.64;1594625;90;21082;-71
2022/03/23 11:23:26;;;;;;;19.12;8.13;;;;;;;15.40;26.16;101234.11;1594203;90;21090;-70
2022/03/23 11:26:08;;;;;;;36.53;9.15;;;;;;;15.11;26.14;101231.44;1609867;89;21094;-69
2022/03/23 11:28:44;;;;;;;24.85;8.93;;;;;;;15.19;27.47;101227.84;1618472;87;21113;-70
2022/03/23 11:31:15;;;;;;;15.60;7.80;;;;;;;15.38;27.26;101219.81;1634533;88;21090;-70
2022/03/23 11:33:49;;;;;;;16.97;9.10;;;;;;;15.62;27.42;101213.97;1623121;88;21041;-69
2022/03/23 11:36:17;;;;;;;20.75;8.75;;;;;;;15.79;27.34;101212.89;1616876;89;21105;-70
2022/03/23 11:38:45;;;;;;;35.73;10.63;;;;;;;15.99;27.04;101205.16;1619793;86;21045;-71
2022/03/23 11:41:14;;;;;;;27.50;10.58;;;;;;;16.15;26.79;101201.48;1663401;86;21604;-71
2022/03/23 11:43:42;;;;;;;32.00;10.82;;;;;;;16.27;27.24;101192.36;1664945;86;21131;-69
2022/03/23 11:46:10;;;;;;;26.30;11.53;;;;;;;16.45;27.30;101197.02;1662829;86;21116;-70